sensor_id;sensor_type;location;lat;lon;timestamp;pressure;altitude;pressure_sealevel;temperature;humidity
25156;BME280;21913;52.456;13.634;2023-04-28T00:01:42;100171.16;;;12.54;72.97
25156;BME280;21913;52.456;13.634;2023-04-28T00:06:43;100152.13;;;12.55;73.04
25156;BME280;21913;52.456;13.634;2023-04-28T00:11:45;100142.63;;;12.54;73.13
25156;BME280;21913;52.456;13.634;2023-04-28T00:16:46;100156.47;;;12.54;72.98
25156;BME280;21913;52.456;13.634;2023-04-28T00:21:48;100135.69;;;12.54;73.08
25156;BME280;21913;52.456;13.634;2023-04-28T00:26:49;100140.03;;;12.54;73.01
25156;BME280;21913;52.456;13.634;2023-04-28T00:31:51;100130.50;;;12.54;73.15
25156;BME280;21913;52.456;13.634;2023-04-28T00:36:52;100121.88;;;12.52;73.17
25156;BME280;21913;52.456;13.634;2023-04-28T00:41:54;100119.25;;;12.54;73.20
25156;BME280;21913;52.456;13.634;2023-04-28T00:46:57;100101.09;;;12.54;73.20
25156;BME280;21913;52.456;13.634;2023-04-28T00:52:05;100105.41;;;12.55;73.19
25156;BME280;21913;52.456;13.634;2023-04-28T00:57:08;100094.16;;;12.54;73.12
25156;BME280;21913;52.456;13.634;2023-04-28T01:02:10;100084.66;;;12.55;73.29
25156;BME280;21913;52.456;13.634;2023-04-28T01:07:12;100089.00;;;12.53;73.12
25156;BME280;21913;52.456;13.634;2023-04-28T01:12:13;100078.59;;;12.54;73.25
25156;BME280;21913;52.456;13.634;2023-04-28T01:17:17;100076.88;;;12.53;73.35
25156;BME280;21913;52.456;13.634;2023-04-28T01:22:19;100071.69;;;12.53;73.23
25156;BME280;21913;52.456;13.634;2023-04-28T01:27:22;100068.22;;;12.54;73.32
25156;BME280;21913;52.456;13.634;2023-04-28T01:32:23;100070.81;;;12.54;73.35
25156;BME280;21913;52.456;13.634;2023-04-28T01:37:25;100063.88;;;12.55;73.33
25156;BME280;21913;52.456;13.634;2023-04-28T01:42:27;100067.34;;;12.54;73.37
25156;BME280;21913;52.456;13.634;2023-04-28T01:47:29;100060.44;;;12.54;73.35
25156;BME280;21913;52.456;13.634;2023-04-28T01:52:30;100049.19;;;12.54;73.36
25156;BME280;21913;52.456;13.634;2023-04-28T01:57:32;100048.34;;;12.53;73.35
25156;BME280;21913;52.456;13.634;2023-04-28T02:02:33;100052.66;;;12.54;73.36
25156;BME280;21913;52.456;13.634;2023-04-28T02:07:35;100050.06;;;12.53;73.47
25156;BME280;21913;52.456;13.634;2023-04-28T02:12:37;100044.00;;;12.54;73.43
25156;BME280;21913;52.456;13.634;2023-04-28T02:17:38;100036.22;;;12.54;73.38
25156;BME280;21913;52.456;13.634;2023-04-28T02:22:40;100042.25;;;12.54;73.35
25156;BME280;21913;52.456;13.634;2023-04-28T02:27:41;100030.16;;;12.55;73.52
25156;BME280;21913;52.456;13.634;2023-04-28T02:32:43;100035.34;;;12.53;73.51
25156;BME280;21913;52.456;13.634;2023-04-28T02:37:44;100026.69;;;12.54;73.38
25156;BME280;21913;52.456;13.634;2023-04-28T02:42:46;100011.16;;;12.53;73.47
25156;BME280;21913;52.456;13.634;2023-04-28T02:47:47;100005.94;;;12.54;73.49
25156;BME280;21913;52.456;13.634;2023-04-28T02:52:50;100007.66;;;12.54;73.42
25156;BME280;21913;52.456;13.634;2023-04-28T02:57:51;100000.75;;;12.54;73.47
25156;BME280;21913;52.456;13.634;2023-04-28T03:02:53;99999.03;;;12.53;73.56
25156;BME280;21913;52.456;13.634;2023-04-28T03:07:54;99991.25;;;12.53;73.41
25156;BME280;21913;52.456;13.634;2023-04-28T03:12:56;99994.69;;;12.54;73.60
25156;BME280;21913;52.456;13.634;2023-04-28T03:17:57;99994.72;;;12.52;73.54
25156;BME280;21913;52.456;13.634;2023-04-28T03:22:59;99996.41;;;12.55;73.58
25156;BME280;21913;52.456;13.634;2023-04-28T03:28:03;99992.97;;;12.53;73.61
25156;BME280;21913;52.456;13.634;2023-04-28T03:33:05;99999.03;;;12.53;73.56
25156;BME280;21913;52.456;13.634;2023-04-28T03:38:06;99987.75;;;12.54;73.53
25156;BME280;21913;52.456;13.634;2023-04-28T03:43:09;99995.53;;;12.54;73.72
25156;BME280;21913;52.456;13.634;2023-04-28T03:48:16;99994.69;;;12.54;73.55
25156;BME280;21913;52.456;13.634;2023-04-28T03:53:18;99987.78;;;12.53;73.63
25156;BME280;21913;52.456;13.634;2023-04-28T03:58:19;99977.41;;;12.53;73.71
25156;BME280;21913;52.456;13.634;2023-04-28T04:03:21;99986.03;;;12.53;73.76
25156;BME280;21913;52.456;13.634;2023-04-28T04:08:23;99968.75;;;12.52;73.75
25156;BME280;21913;52.456;13.634;2023-04-28T04:13:24;99964.41;;;12.54;73.70
25156;BME280;21913;52.456;13.634;2023-04-28T04:18:26;99972.19;;;12.54;73.80
25156;BME280;21913;52.456;13.634;2023-04-28T04:23:43;99959.22;;;12.54;73.69
25156;BME280;21913;52.456;13.634;2023-04-28T04:28:45;99948.84;;;12.54;73.67
25156;BME280;21913;52.456;13.634;2023-04-28T04:33:48;99950.56;;;12.54;73.76
25156;BME280;21913;52.456;13.634;2023-04-28T04:38:51;99948.84;;;12.53;73.73
25156;BME280;21913;52.456;13.634;2023-04-28T04:43:55;99951.44;;;12.53;73.76
25156;BME280;21913;52.456;13.634;2023-04-28T04:49:02;99935.88;;;12.53;73.75
25156;BME280;21913;52.456;13.634;2023-04-28T04:54:04;99925.50;;;12.53;73.83
25156;BME280;21913;52.456;13.634;2023-04-28T04:59:05;99924.66;;;12.52;73.78
25156;BME280;21913;52.456;13.634;2023-04-28T05:04:16;99927.22;;;12.54;73.81
25156;BME280;21913;52.456;13.634;2023-04-28T05:09:18;99925.50;;;12.53;73.81
25156;BME280;21913;52.456;13.634;2023-04-28T05:14:19;99926.34;;;12.55;73.81
25156;BME280;21913;52.456;13.634;2023-04-28T05:19:22;99922.88;;;12.54;73.73
25156;BME280;21913;52.456;13.634;2023-04-28T05:24:24;99911.66;;;12.54;73.74
25156;BME280;21913;52.456;13.634;2023-04-28T05:29:26;99916.84;;;12.54;73.87
25156;BME280;21913;52.456;13.634;2023-04-28T05:34:27;99920.31;;;12.53;73.90
25156;BME280;21913;52.456;13.634;2023-04-28T05:39:29;99924.63;;;12.54;73.90
25156;BME280;21913;52.456;13.634;2023-04-28T05:44:34;99928.06;;;12.54;73.84
25156;BME280;21913;52.456;13.634;2023-04-28T05:49:36;99924.63;;;12.54;74.08
25156;BME280;21913;52.456;13.634;2023-04-28T05:54:39;99920.31;;;12.53;73.81
25156;BME280;21913;52.456;13.634;2023-04-28T05:59:40;99924.59;;;12.55;73.97
25156;BME280;21913;52.456;13.634;2023-04-28T06:04:42;99917.69;;;12.54;73.98
25156;BME280;21913;52.456;13.634;2023-04-28T06:09:44;99905.59;;;12.53;74.08
25156;BME280;21913;52.456;13.634;2023-04-28T06:14:46;99891.75;;;12.54;74.00
25156;BME280;21913;52.456;13.634;2023-04-28T06:19:47;99892.59;;;12.55;74.11
25156;BME280;21913;52.456;13.634;2023-04-28T06:24:50;99896.06;;;12.54;74.01
25156;BME280;21913;52.456;13.634;2023-04-28T06:29:57;99883.97;;;12.53;74.08
25156;BME280;21913;52.456;13.634;2023-04-28T06:34:59;99889.16;;;12.54;74.08
25156;BME280;21913;52.456;13.634;2023-04-28T06:40:00;99894.34;;;12.53;74.17
25156;BME280;21913;52.456;13.634;2023-04-28T06:45:03;99883.97;;;12.54;74.15
25156;BME280;21913;52.456;13.634;2023-04-28T06:50:05;99873.59;;;12.53;74.10
25156;BME280;21913;52.456;13.634;2023-04-28T06:55:14;99870.97;;;12.54;74.16
25156;BME280;21913;52.456;13.634;2023-04-28T07:00:16;99866.66;;;12.55;74.03
25156;BME280;21913;52.456;13.634;2023-04-28T07:05:17;99860.59;;;12.54;74.18
25156;BME280;21913;52.456;13.634;2023-04-28T07:10:19;99866.66;;;12.55;74.06
25156;BME280;21913;52.456;13.634;2023-04-28T07:15:20;99863.25;;;12.51;74.20
25156;BME280;21913;52.456;13.634;2023-04-28T07:20:22;99873.63;;;12.50;73.85
25156;BME280;21913;52.456;13.634;2023-04-28T07:25:23;99861.53;;;12.49;73.72
25156;BME280;21913;52.456;13.634;2023-04-28T07:30:25;99863.25;;;12.48;73.53
25156;BME280;21913;52.456;13.634;2023-04-28T07:35:27;99848.56;;;12.47;73.34
25156;BME280;21913;52.456;13.634;2023-04-28T07:40:29;99850.28;;;12.48;73.37
25156;BME280;21913;52.456;13.634;2023-04-28T07:45:30;99845.13;;;12.47;73.32
25156;BME280;21913;52.456;13.634;2023-04-28T07:50:33;99829.53;;;12.48;73.43
25156;BME280;21913;52.456;13.634;2023-04-28T07:55:34;99812.22;;;12.49;73.39
25156;BME280;21913;52.456;13.634;2023-04-28T08:00:36;99799.28;;;12.47;73.56
25156;BME280;21913;52.456;13.634;2023-04-28T08:05:38;99826.94;;;12.48;73.39
25156;BME280;21913;52.456;13.634;2023-04-28T08:10:40;99834.69;;;12.50;73.47
25156;BME280;21913;52.456;13.634;2023-04-28T08:15:41;99834.72;;;12.48;73.39
25156;BME280;21913;52.456;13.634;2023-04-28T08:20:43;99832.13;;;12.48;73.48
25156;BME280;21913;52.456;13.634;2023-04-28T08:25:44;99838.16;;;12.49;73.53
25156;BME280;21913;52.456;13.634;2023-04-28T08:30:46;99842.50;;;12.48;73.65
25156;BME280;21913;52.456;13.634;2023-04-28T08:35:47;99857.19;;;12.49;73.54
25156;BME280;21913;52.456;13.634;2023-04-28T08:40:49;99864.13;;;12.49;73.67
25156;BME280;21913;52.456;13.634;2023-04-28T08:45:51;99858.91;;;12.50;73.51
25156;BME280;21913;52.456;13.634;2023-04-28T08:50:53;99855.47;;;12.48;73.52
25156;BME280;21913;52.456;13.634;2023-04-28T08:55:56;99851.13;;;12.49;73.46
25156;BME280;21913;52.456;13.634;2023-04-28T09:00:57;99837.31;;;12.48;73.61
25156;BME280;21913;52.456;13.634;2023-04-28T09:06:00;99846.81;;;12.49;73.56
25156;BME280;21913;52.456;13.634;2023-04-28T09:11:09;99833.84;;;12.49;73.45
25156;BME280;21913;52.456;13.634;2023-04-28T09:16:11;99829.50;;;12.50;73.55
25156;BME280;21913;52.456;13.634;2023-04-28T09:21:12;99817.41;;;12.49;73.68
25156;BME280;21913;52.456;13.634;2023-04-28T09:26:14;99806.16;;;12.50;73.65
25156;BME280;21913;52.456;13.634;2023-04-28T09:31:22;99805.28;;;12.51;73.58
25156;BME280;21913;52.456;13.634;2023-04-28T09:36:28;99807.88;;;12.51;73.63
25156;BME280;21913;52.456;13.634;2023-04-28T09:41:40;99813.09;;;12.51;73.58
25156;BME280;21913;52.456;13.634;2023-04-28T09:46:42;99807.00;;;12.50;73.67
25156;BME280;21913;52.456;13.634;2023-04-28T09:51:44;99794.91;;;12.51;73.49
25156;BME280;21913;52.456;13.634;2023-04-28T09:56:46;99788.00;;;12.51;73.76
25156;BME280;21913;52.456;13.634;2023-04-28T10:01:48;99787.09;;;12.52;73.66
25156;BME280;21913;52.456;13.634;2023-04-28T10:06:50;99792.28;;;12.54;73.57
25156;BME280;21913;52.456;13.634;2023-04-28T10:11:52;99800.91;;;12.54;73.59
25156;BME280;21913;52.456;13.634;2023-04-28T10:16:54;99787.94;;;12.54;73.55
25156;BME280;21913;52.456;13.634;2023-04-28T10:27:20;99794.84;;;12.55;73.71
25156;BME280;21913;52.456;13.634;2023-04-28T10:32:23;99781.84;;;12.55;73.70
25156;BME280;21913;52.456;13.634;2023-04-28T10:43:05;99760.25;;;13.18;75.20
25156;BME280;21913;52.456;13.634;2023-04-28T10:48:07;99752.41;;;13.75;74.00
25156;BME280;21913;52.456;13.634;2023-04-28T10:53:08;99755.97;;;14.17;72.93
25156;BME280;21913;52.456;13.634;2023-04-28T11:03:41;99763.63;;;14.70;71.61
25156;BME280;21913;52.456;13.634;2023-04-28T11:08:48;99754.66;;;14.83;71.19
25156;BME280;21913;52.456;13.634;2023-04-28T11:13:51;99743.16;;;14.93;70.87
25156;BME280;21913;52.456;13.634;2023-04-28T11:18:57;99726.50;;;15.01;70.65
25156;BME280;21913;52.456;13.634;2023-04-28T11:23:59;99712.47;;;15.06;70.59
25156;BME280;21913;52.456;13.634;2023-04-28T11:29:01;99708.94;;;15.09;70.30
25156;BME280;21913;52.456;13.634;2023-04-28T11:34:09;99729.66;;;15.13;70.33
25156;BME280;21913;52.456;13.634;2023-04-28T11:39:12;99730.53;;;15.14;69.95
25156;BME280;21913;52.456;13.634;2023-04-28T11:44:18;99728.81;;;15.13;70.20
25156;BME280;21913;52.456;13.634;2023-04-28T11:49:22;99729.72;;;15.12;70.19
25156;BME280;21913;52.456;13.634;2023-04-28T11:54:26;99728.03;;;15.09;70.08
25156;BME280;21913;52.456;13.634;2023-04-28T11:59:29;99726.31;;;15.08;70.24
25156;BME280;21913;52.456;13.634;2023-04-28T12:04:36;99728.13;;;15.06;70.08
25156;BME280;21913;52.456;13.634;2023-04-28T12:09:44;99721.16;;;15.05;70.04
25156;BME280;21913;52.456;13.634;2023-04-28T12:14:53;99712.59;;;15.00;70.40
25156;BME280;21913;52.456;13.634;2023-04-28T12:19:56;99717.84;;;14.98;70.19
25156;BME280;21913;52.456;13.634;2023-04-28T12:25:02;99720.50;;;14.97;70.63
25156;BME280;21913;52.456;13.634;2023-04-28T12:30:23;99716.19;;;14.94;70.33
25156;BME280;21913;52.456;13.634;2023-04-28T12:35:27;99717.19;;;14.89;70.55
25156;BME280;21913;52.456;13.634;2023-04-28T12:40:29;99720.75;;;14.86;70.65
25156;BME280;21913;52.456;13.634;2023-04-28T12:45:30;99723.41;;;14.83;70.62
25156;BME280;21913;52.456;13.634;2023-04-28T12:50:31;99727.81;;;14.81;70.65
25156;BME280;21913;52.456;13.634;2023-04-28T12:55:33;99727.91;;;14.77;70.94
25156;BME280;21913;52.456;13.634;2023-04-28T13:00:34;99731.41;;;14.76;71.01
25156;BME280;21913;52.456;13.634;2023-04-28T13:05:36;99726.25;;;14.72;70.90
25156;BME280;21913;52.456;13.634;2023-04-28T13:10:39;99736.75;;;14.69;71.14
25156;BME280;21913;52.456;13.634;2023-04-28T13:15:41;99739.38;;;14.68;71.15
25156;BME280;21913;52.456;13.634;2023-04-28T13:20:42;99737.69;;;14.65;71.16
25156;BME280;21913;52.456;13.634;2023-04-28T13:25:44;99729.94;;;14.62;71.24
25156;BME280;21913;52.456;13.634;2023-04-28T13:30:45;99729.97;;;14.61;71.23
25156;BME280;21913;52.456;13.634;2023-04-28T13:35:47;99737.00;;;14.57;71.40
25156;BME280;21913;52.456;13.634;2023-04-28T13:40:48;99740.47;;;14.58;71.20
25156;BME280;21913;52.456;13.634;2023-04-28T13:45:50;99730.16;;;14.53;71.21
25156;BME280;21913;52.456;13.634;2023-04-28T13:50:52;99731.03;;;14.52;71.54
25156;BME280;21913;52.456;13.634;2023-04-28T13:55:53;99725.84;;;14.51;71.45
25156;BME280;21913;52.456;13.634;2023-04-28T14:00:55;99717.25;;;14.47;71.63
25156;BME280;21913;52.456;13.634;2023-04-28T14:05:57;99721.59;;;14.45;71.49
25156;BME280;21913;52.456;13.634;2023-04-28T14:10:59;99719.91;;;14.42;71.50
25156;BME280;21913;52.456;13.634;2023-04-28T14:16:00;99714.75;;;14.41;71.80
25156;BME280;21913;52.456;13.634;2023-04-28T14:21:02;99695.69;;;14.39;71.69
25156;BME280;21913;52.456;13.634;2023-04-28T14:26:04;99686.19;;;14.38;71.62
25156;BME280;21913;52.456;13.634;2023-04-28T14:31:05;99672.34;;;14.36;71.77
25156;BME280;21913;52.456;13.634;2023-04-28T14:36:07;99659.41;;;14.33;71.82
25156;BME280;21913;52.456;13.634;2023-04-28T14:41:08;99666.34;;;14.32;71.93
25156;BME280;21913;52.456;13.634;2023-04-28T14:46:10;99662.91;;;14.32;72.08
25156;BME280;21913;52.456;13.634;2023-04-28T14:51:12;99656.84;;;14.30;71.79
25156;BME280;21913;52.456;13.634;2023-04-28T14:56:13;99663.84;;;14.28;71.87
25156;BME280;21913;52.456;13.634;2023-04-28T15:01:18;99655.19;;;14.27;71.91
25156;BME280;21913;52.456;13.634;2023-04-28T15:06:20;99659.56;;;14.25;71.89
25156;BME280;21913;52.456;13.634;2023-04-28T15:11:21;99664.78;;;14.24;72.07
25156;BME280;21913;52.456;13.634;2023-04-28T15:16:23;99664.81;;;14.22;72.03
25156;BME280;21913;52.456;13.634;2023-04-28T15:21:24;99663.13;;;14.21;71.90
25156;BME280;21913;52.456;13.634;2023-04-28T15:26:26;99651.84;;;14.20;72.20
25156;BME280;21913;52.456;13.634;2023-04-28T15:31:28;99658.81;;;14.18;72.12
25156;BME280;21913;52.456;13.634;2023-04-28T15:36:30;99646.69;;;14.17;72.08
25156;BME280;21913;52.456;13.634;2023-04-28T15:41:32;99648.44;;;14.17;72.07
25156;BME280;21913;52.456;13.634;2023-04-28T15:46:35;99641.56;;;14.14;72.02
25156;BME280;21913;52.456;13.634;2023-04-28T15:51:36;99660.66;;;14.13;72.32
25156;BME280;21913;52.456;13.634;2023-04-28T15:56:38;99652.88;;;14.12;72.40
25156;BME280;21913;52.456;13.634;2023-04-28T16:01:39;99664.19;;;14.11;72.22
25156;BME280;21913;52.456;13.634;2023-04-28T16:06:41;99658.97;;;14.11;72.13
25156;BME280;21913;52.456;13.634;2023-04-28T16:11:42;99648.63;;;14.09;72.28
25156;BME280;21913;52.456;13.634;2023-04-28T16:16:44;99657.31;;;14.08;72.43
25156;BME280;21913;52.456;13.634;2023-04-28T16:21:45;99654.72;;;14.08;72.38
25156;BME280;21913;52.456;13.634;2023-04-28T16:26:47;99663.38;;;14.07;72.58
25156;BME280;21913;52.456;13.634;2023-04-28T16:31:48;99664.22;;;14.08;73.00
25156;BME280;21913;52.456;13.634;2023-04-28T16:36:50;99662.53;;;14.07;72.91
25156;BME280;21913;52.456;13.634;2023-04-28T16:41:51;99682.47;;;14.06;72.97
25156;BME280;21913;52.456;13.634;2023-04-28T16:46:53;99685.13;;;14.05;72.91
25156;BME280;21913;52.456;13.634;2023-04-28T16:51:59;99692.06;;;14.04;72.81
25156;BME280;21913;52.456;13.634;2023-04-28T16:57:02;99704.22;;;14.02;73.03
25156;BME280;21913;52.456;13.634;2023-04-28T17:02:04;99703.38;;;14.02;72.75
25156;BME280;21913;52.456;13.634;2023-04-28T17:07:05;99707.72;;;14.01;72.77
25156;BME280;21913;52.456;13.634;2023-04-28T17:12:07;99711.22;;;14.00;72.78
25156;BME280;21913;52.456;13.634;2023-04-28T17:17:08;99703.41;;;14.00;72.62
25156;BME280;21913;52.456;13.634;2023-04-28T17:22:10;99709.50;;;13.99;72.81
25156;BME280;21913;52.456;13.634;2023-04-28T17:27:12;99715.59;;;13.98;72.63
25156;BME280;21913;52.456;13.634;2023-04-28T17:32:13;99722.56;;;13.98;72.83
25156;BME280;21913;52.456;13.634;2023-04-28T17:37:15;99734.69;;;13.97;72.76
25156;BME280;21913;52.456;13.634;2023-04-28T17:42:16;99734.69;;;13.97;72.56
25156;BME280;21913;52.456;13.634;2023-04-28T17:47:18;99742.50;;;13.95;72.88
25156;BME280;21913;52.456;13.634;2023-04-28T17:52:19;99745.97;;;13.96;72.91
25156;BME280;21913;52.456;13.634;2023-04-28T17:57:20;99740.84;;;13.93;72.75
25156;BME280;21913;52.456;13.634;2023-04-28T18:02:22;99740.00;;;13.92;72.70
25156;BME280;21913;52.456;13.634;2023-04-28T18:07:23;99744.34;;;13.92;72.72
25156;BME280;21913;52.456;13.634;2023-04-28T18:12:25;99745.19;;;13.91;72.62
25156;BME280;21913;52.456;13.634;2023-04-28T18:17:27;99748.69;;;13.90;72.84
25156;BME280;21913;52.456;13.634;2023-04-28T18:22:29;99757.34;;;13.90;72.80
25156;BME280;21913;52.456;13.634;2023-04-28T18:27:31;99766.88;;;13.90;72.76
25156;BME280;21913;52.456;13.634;2023-04-28T18:32:32;99771.28;;;13.88;72.87
25156;BME280;21913;52.456;13.634;2023-04-28T18:37:34;99768.66;;;13.88;72.75
25156;BME280;21913;52.456;13.634;2023-04-28T18:42:36;99771.31;;;13.86;72.93
25156;BME280;21913;52.456;13.634;2023-04-28T18:47:37;99779.13;;;13.86;72.98
25156;BME280;21913;52.456;13.634;2023-04-28T18:52:39;99779.13;;;13.85;72.85
25156;BME280;21913;52.456;13.634;2023-04-28T18:57:41;99785.16;;;13.85;72.83
25156;BME280;21913;52.456;13.634;2023-04-28T19:02:42;99791.25;;;13.84;72.91
25156;BME280;21913;52.456;13.634;2023-04-28T19:07:44;99797.34;;;13.83;72.90
25156;BME280;21913;52.456;13.634;2023-04-28T19:12:46;99799.09;;;13.83;72.88
25156;BME280;21913;52.456;13.634;2023-04-28T19:17:48;99801.69;;;13.83;72.82
25156;BME280;21913;52.456;13.634;2023-04-28T19:22:50;99813.00;;;13.82;72.91
25156;BME280;21913;52.456;13.634;2023-04-28T19:27:52;99818.19;;;13.82;72.90
25156;BME280;21913;52.456;13.634;2023-04-28T19:32:53;99824.25;;;13.81;73.05
25156;BME280;21913;52.456;13.634;2023-04-28T19:37:55;99833.78;;;13.80;72.93
25156;BME280;21913;52.456;13.634;2023-04-28T19:42:57;99839.00;;;13.80;72.95
25156;BME280;21913;52.456;13.634;2023-04-28T19:48:00;99845.94;;;13.80;73.08
25156;BME280;21913;52.456;13.634;2023-04-28T19:53:02;99825.22;;;13.77;73.08
25156;BME280;21913;52.456;13.634;2023-04-28T19:58:03;99844.22;;;13.79;73.13
25156;BME280;21913;52.456;13.634;2023-04-28T20:03:05;99837.31;;;13.78;73.06
25156;BME280;21913;52.456;13.634;2023-04-28T20:08:07;99832.97;;;13.78;73.03
25156;BME280;21913;52.456;13.634;2023-04-28T20:13:08;99834.75;;;13.76;73.05
25156;BME280;21913;52.456;13.634;2023-04-28T20:18:10;99835.63;;;13.75;73.15
25156;BME280;21913;52.456;13.634;2023-04-28T20:23:11;99839.94;;;13.76;73.01
25156;BME280;21913;52.456;13.634;2023-04-28T20:28:13;99833.91;;;13.74;73.02
25156;BME280;21913;52.456;13.634;2023-04-28T20:33:14;99834.75;;;13.75;73.07
25156;BME280;21913;52.456;13.634;2023-04-28T20:38:16;99839.97;;;13.75;73.11
25156;BME280;21913;52.456;13.634;2023-04-28T20:43:17;99836.50;;;13.74;73.09
25156;BME280;21913;52.456;13.634;2023-04-28T20:48:19;99837.38;;;13.73;73.12
25156;BME280;21913;52.456;13.634;2023-04-28T20:53:20;99838.28;;;13.72;73.12
25156;BME280;21913;52.456;13.634;2023-04-28T20:58:22;99834.78;;;13.73;73.28
25156;BME280;21913;52.456;13.634;2023-04-28T21:03:24;99835.69;;;13.72;73.25
25156;BME280;21913;52.456;13.634;2023-04-28T21:08:25;99835.72;;;13.71;73.14
25156;BME280;21913;52.456;13.634;2023-04-28T21:13:27;99830.47;;;13.72;73.22
25156;BME280;21913;52.456;13.634;2023-04-28T21:18:28;99820.97;;;13.71;73.12
25156;BME280;21913;52.456;13.634;2023-04-28T21:23:30;99830.50;;;13.71;73.25
25156;BME280;21913;52.456;13.634;2023-04-28T21:28:33;99827.91;;;13.71;73.38
25156;BME280;21913;52.456;13.634;2023-04-28T21:33:34;99827.06;;;13.70;73.20
25156;BME280;21913;52.456;13.634;2023-04-28T21:38:36;99829.66;;;13.70;73.13
25156;BME280;21913;52.456;13.634;2023-04-28T21:43:37;99827.91;;;13.69;73.15
25156;BME280;21913;52.456;13.634;2023-04-28T21:48:39;99838.34;;;13.67;73.30
25156;BME280;21913;52.456;13.634;2023-04-28T21:53:40;99834.00;;;13.68;73.21
25156;BME280;21913;52.456;13.634;2023-04-28T21:58:42;99832.25;;;13.68;73.27
25156;BME280;21913;52.456;13.634;2023-04-28T22:03:44;99835.75;;;13.67;73.30
25156;BME280;21913;52.456;13.634;2023-04-28T22:08:46;99836.63;;;13.66;73.29
25156;BME280;21913;52.456;13.634;2023-04-28T22:13:48;99834.88;;;13.67;73.21
25156;BME280;21913;52.456;13.634;2023-04-28T22:18:52;99838.34;;;13.67;73.23
25156;BME280;21913;52.456;13.634;2023-04-28T22:23:54;99839.25;;;13.66;73.30
25156;BME280;21913;52.456;13.634;2023-04-28T22:29:05;99838.38;;;13.66;73.13
25156;BME280;21913;52.456;13.634;2023-04-28T22:34:06;99847.94;;;13.65;73.22
25156;BME280;21913;52.456;13.634;2023-04-28T22:39:08;99851.38;;;13.66;73.27
25156;BME280;21913;52.456;13.634;2023-04-28T22:44:09;99863.53;;;13.65;73.18
25156;BME280;21913;52.456;13.634;2023-04-28T22:49:11;99862.66;;;13.65;73.28
25156;BME280;21913;52.456;13.634;2023-04-28T22:54:12;99862.66;;;13.65;73.36
25156;BME280;21913;52.456;13.634;2023-04-28T22:59:14;99858.31;;;13.64;73.24
25156;BME280;21913;52.456;13.634;2023-04-28T23:04:15;99851.41;;;13.63;73.30
25156;BME280;21913;52.456;13.634;2023-04-28T23:09:17;99858.31;;;13.64;73.24
25156;BME280;21913;52.456;13.634;2023-04-28T23:14:18;99858.31;;;13.64;73.22
25156;BME280;21913;52.456;13.634;2023-04-28T23:19:20;99867.00;;;13.63;73.29
25156;BME280;21913;52.456;13.634;2023-04-28T23:24:21;99871.34;;;13.62;73.39
25156;BME280;21913;52.456;13.634;2023-04-28T23:29:25;99873.94;;;13.62;73.31
25156;BME280;21913;52.456;13.634;2023-04-28T23:34:27;99880.91;;;13.62;73.29
25156;BME280;21913;52.456;13.634;2023-04-28T23:39:29;99886.94;;;13.62;73.25
25156;BME280;21913;52.456;13.634;2023-04-28T23:44:30;99886.97;;;13.61;73.34
25156;BME280;21913;52.456;13.634;2023-04-28T23:49:32;99875.72;;;13.60;73.40
25156;BME280;21913;52.456;13.634;2023-04-28T23:54:33;99888.72;;;13.60;73.34
25156;BME280;21913;52.456;13.634;2023-04-28T23:59:35;99888.72;;;13.60;73.46
